Flight Track Log - Related Links

Times and Time Zones

All times are in EDT time to prevent confusion due to time zone crossing. See the AAR8946 flight status page for this flight to view local times or setup timezone preferences in your user account.

Time Position Orientation Groundspeed Altitude Reporting Facility
EDT Latitude Longitude Course Direction KTS MPH feet Rate Location/Type
Wed 07:44:00 AM 33.7933 126.5128 North  Level Estimated
Wed 07:45:00 AM 33.8872 126.5194 North  Level Estimated
Wed 07:46:00 AM 33.9812 126.5261 North  Level Estimated
Wed 07:47:00 AM 34.0752 126.5327 North  Level Estimated
Wed 07:48:00 AM 34.1692 126.5394 North  Level Estimated
Wed 07:49:00 AM 34.2631 126.5461 North  Level Estimated
Wed 07:50:00 AM 34.3571 126.5528 North  Level Estimated
Wed 07:51:00 AM 34.4511 126.5595 North  Level Estimated
Wed 07:52:00 AM 34.5451 126.5662 North  Level Estimated
Wed 07:53:00 AM 34.6391 126.5730 North  Level Estimated
Wed 07:54:00 AM 34.7331 126.5797 North  Level Estimated
Wed 07:55:00 AM 34.8270 126.5865 North  Level Estimated
Wed 07:56:00 AM 34.9210 126.5933 North  Level Estimated
Wed 07:57:00 AM 35.0150 126.6001 North  Level Estimated
Wed 07:58:00 AM 35.1090 126.6069 North  Level Estimated
Wed 07:59:00 AM 35.2029 126.6138 North  Level Estimated
Wed 08:00:00 AM 35.2969 126.6206 North  Level Estimated
Wed 08:01:00 AM 35.3909 126.6275 North  Level Estimated
Wed 08:02:00 AM 35.4849 126.6344 North  Level Estimated
Wed 08:03:00 AM 35.5789 126.6413 North  Level Estimated
Wed 08:04:00 AM 35.6728 126.6482 North  Level Estimated
Wed 08:05:00 AM 35.7668 126.6551 North  Level Estimated
Wed 08:06:00 AM 35.8608 126.6621 North  Level Estimated
Wed 08:07:00 AM 35.9548 126.6691 North  Level Estimated
Wed 08:08:00 AM 36.0487 126.6760 North  Level Estimated
Wed 08:09:00 AM 36.1427 126.6830 North  Level Estimated
Wed 08:10:00 AM 36.2367 126.6900 North  Level Estimated
Wed 08:11:00 AM 36.3306 126.6971 North  Level Estimated
Wed 08:12:00 AM 36.4246 126.7041 North  Level Estimated
Wed 08:13:00 AM 36.5186 126.7112 North  Level Estimated
Wed 08:14:00 AM 36.6125 126.7183 North  Level Estimated
Wed 08:15:00 AM 36.7065 126.7254 North  Level Estimated
Wed 08:16:00 AM 36.8005 126.7325 North  Level Estimated
Wed 08:17:00 AM 36.8945 126.7396 North  Level Estimated
Wed 08:18:00 AM 36.9884 126.7468 North  Level Estimated
Wed 08:19:00 AM 37.0824 126.7540 North  Level Estimated
Wed 08:20:00 AM 37.1764 126.7612 North  Level Estimated
Wed 08:21:00 AM 37.2703 126.7684 North  Level Estimated
Wed 08:22:00 AM 37.3643 126.7756 North  Level Estimated
Wed 08:23:00 AM 37.4583 126.7829 North  Level Estimated
Wed 08:24:00 AM 37.5522 126.7901 North  Level Estimated
Wed 08:25:00 AM 37.5583 126.7906 North  Level Estimated
Wed 08:26:00 AM 37.5583 126.7906 288° West  Level Estimated
Wed 08:27:00 AM 37.5583 126.7906 288° West  Level Estimated
Wed 08:28:00 AM 37.5583 126.7906 288° West  Level Estimated
Wed 08:29:00 AM 37.5583 126.7906 288° West  Level Estimated
Wed 08:30:00 AM 37.5583 126.7906 288° West  Level Estimated
Wed 08:31:00 AM 37.5583 126.7906 288° West  Level Estimated
Wed 08:32:00 AM 37.5583 126.7906 288° West  Level Estimated
Wed 08:33:00 AM 37.5583 126.7906 288° West  Level Estimated
Wed 08:34:00 AM 37.5583 126.7906 288° West  Level Estimated
Wed 08:35:00 AM 37.5583 126.7906 288° West  Level Estimated
Wed 08:36:00 AM 37.5583 126.7906 288° West  Level Estimated
Wed 08:37:00 AM 37.5583 126.7906 288° West  Level Estimated
Wed 08:38:00 AM 37.5583 126.7906 288° West  Level Estimated
Wed 08:39:00 AM 37.5583 126.7906 288° West  Level Estimated

Login

Don't have an account? Register now (free) for customized features, flight alerts, and more!